createdAt,value
2019-03-17T00:02:23.006Z,4.99
2019-03-17T00:04:57.223Z,4.99
2019-03-17T00:07:32.030Z,4.97
2019-03-17T00:10:08.858Z,4.85
2019-03-17T00:12:40.355Z,4.89
2019-03-17T00:15:13.838Z,5.03
2019-03-17T00:17:45.499Z,5.03
2019-03-17T00:20:20.163Z,4.93
2019-03-17T00:22:55.316Z,4.99
2019-03-17T00:25:28.744Z,4.90
2019-03-17T00:28:03.095Z,4.85
2019-03-17T00:30:34.855Z,4.98
2019-03-17T00:33:09.297Z,4.86
2019-03-17T00:35:44.141Z,4.87
2019-03-17T00:38:17.744Z,4.82
2019-03-17T00:40:49.120Z,4.74
2019-03-17T00:43:20.292Z,4.63
2019-03-17T00:45:53.340Z,4.70
2019-03-17T00:48:24.487Z,4.65
2019-03-17T00:50:56.936Z,4.61
2019-03-17T00:53:35.507Z,4.48
2019-03-17T00:56:07.910Z,4.46
2019-03-17T00:58:49.943Z,4.58
2019-03-17T01:01:17.970Z,4.46
2019-03-17T01:03:51.001Z,4.51
2019-03-17T01:06:23.505Z,4.49
2019-03-17T01:08:55.672Z,4.51
2019-03-17T01:11:26.791Z,4.47
2019-03-17T01:13:58.330Z,4.50
2019-03-17T01:16:34.094Z,4.50
2019-03-17T01:19:07.333Z,4.55
2019-03-17T01:21:41.442Z,4.62
2019-03-17T01:24:12.643Z,4.62
2019-03-17T01:26:43.928Z,4.68
2019-03-17T01:29:15.203Z,4.68
2019-03-17T01:31:46.373Z,4.75
2019-03-17T01:34:19.630Z,4.77
2019-03-17T01:36:50.920Z,4.77
2019-03-17T01:39:23.153Z,4.68
2019-03-17T01:41:55.977Z,4.61
2019-03-17T01:44:27.095Z,4.66
2019-03-17T01:46:58.358Z,4.58
2019-03-17T01:49:29.613Z,4.45
2019-03-17T01:52:00.833Z,4.44
2019-03-17T01:54:32.202Z,4.50
2019-03-17T01:57:04.461Z,4.51
2019-03-17T01:59:35.699Z,4.51
2019-03-17T02:02:06.841Z,4.54
2019-03-17T02:04:38.180Z,4.68
2019-03-17T02:07:11.483Z,4.62
2019-03-17T02:09:42.785Z,4.57
2019-03-17T02:12:14.125Z,4.62
2019-03-17T02:14:45.371Z,4.60
2019-03-17T02:17:16.662Z,4.60
2019-03-17T02:19:47.979Z,4.64
2019-03-17T02:22:22.086Z,4.67
2019-03-17T02:24:53.242Z,4.67
2019-03-17T02:27:24.313Z,4.68
2019-03-17T02:29:55.686Z,4.61
2019-03-17T02:32:27.140Z,4.53
2019-03-17T02:34:58.845Z,4.54
2019-03-17T02:37:30.037Z,4.52
2019-03-17T02:40:01.333Z,4.60
2019-03-17T02:42:32.480Z,4.59
2019-03-17T02:45:03.926Z,4.56
2019-03-17T02:47:35.280Z,4.50
2019-03-17T02:50:08.132Z,4.53
2019-03-17T02:52:39.307Z,4.54
2019-03-17T02:55:10.396Z,4.54
2019-03-17T02:57:41.890Z,4.54
2019-03-17T03:00:13.066Z,4.52
2019-03-17T03:02:44.304Z,4.52
2019-03-17T03:05:15.719Z,4.53
2019-03-17T03:07:46.892Z,4.52
2019-03-17T03:10:18.110Z,4.53
2019-03-17T03:12:49.449Z,4.57
2019-03-17T03:15:20.687Z,4.61
2019-03-17T03:17:51.922Z,4.64
2019-03-17T03:20:23.180Z,4.63
2019-03-17T03:22:54.428Z,4.71
2019-03-17T03:25:25.771Z,4.71
2019-03-17T03:27:57.176Z,4.75
2019-03-17T03:30:28.445Z,4.68
2019-03-17T03:32:59.816Z,4.72
2019-03-17T03:35:30.975Z,4.69
2019-03-17T03:38:02.267Z,4.62
2019-03-17T03:40:33.579Z,4.65
2019-03-17T03:43:06.755Z,4.67
2019-03-17T03:45:38.317Z,4.68
2019-03-17T03:48:09.503Z,4.58
2019-03-17T03:50:40.672Z,4.70
2019-03-17T03:53:12.032Z,4.68
2019-03-17T03:55:43.362Z,4.63
2019-03-17T03:58:15.665Z,4.62
2019-03-17T04:00:46.896Z,4.65
2019-03-17T04:03:18.117Z,4.72
2019-03-17T04:05:49.348Z,4.73
2019-03-17T04:08:20.675Z,4.68
2019-03-17T04:10:52.174Z,4.64
2019-03-17T04:13:23.312Z,4.68
2019-03-17T04:15:55.559Z,4.73
2019-03-17T04:18:26.733Z,4.64
2019-03-17T04:20:57.863Z,4.60
2019-03-17T04:23:29.471Z,4.64
2019-03-17T04:26:00.670Z,4.58
2019-03-17T04:28:31.954Z,4.56
2019-03-17T04:31:03.143Z,4.56
2019-03-17T04:33:34.420Z,4.60
2019-03-17T04:36:06.683Z,4.60
2019-03-17T04:38:37.991Z,4.55
2019-03-17T04:41:09.197Z,4.62
2019-03-17T04:43:40.420Z,4.69
2019-03-17T04:46:11.691Z,4.68
2019-03-17T04:48:42.916Z,4.72
2019-03-17T04:51:14.510Z,4.79
2019-03-17T04:53:45.653Z,4.78
2019-03-17T04:56:16.820Z,4.79
2019-03-17T04:58:48.232Z,4.89
2019-03-17T05:01:19.431Z,4.93
2019-03-17T05:03:50.596Z,4.96
2019-03-17T05:06:22.249Z,4.96
2019-03-17T05:08:55.281Z,5.01
2019-03-17T05:11:26.619Z,5.02
2019-03-17T05:14:03.491Z,5.01
2019-03-17T05:16:35.909Z,5.04
2019-03-17T05:19:07.378Z,5.08
2019-03-17T05:21:38.716Z,5.08
2019-03-17T05:24:09.996Z,4.91
2019-03-17T05:26:41.410Z,4.84
2019-03-17T05:29:15.137Z,4.94
2019-03-17T05:31:55.338Z,5.06
2019-03-17T05:34:26.546Z,5.13
2019-03-17T05:37:06.077Z,5.11
2019-03-17T05:39:30.865Z,5.29
2019-03-17T05:42:02.078Z,5.36
2019-03-17T05:44:33.247Z,5.30
2019-03-17T05:47:04.703Z,5.25
2019-03-17T05:49:36.215Z,5.28
2019-03-17T05:52:07.496Z,5.20
2019-03-17T05:54:38.843Z,5.15
2019-03-17T05:57:10.270Z,5.07
2019-03-17T05:59:41.515Z,5.03
2019-03-17T06:02:12.880Z,5.06
2019-03-17T06:04:44.374Z,5.04
2019-03-17T06:07:18.963Z,5.17
2019-03-17T06:09:49.287Z,5.11
2019-03-17T06:12:20.508Z,5.13
2019-03-17T06:14:51.570Z,5.16
2019-03-17T06:17:22.865Z,5.38
2019-03-17T06:19:54.218Z,5.48
2019-03-17T06:22:25.360Z,5.51
2019-03-17T06:24:56.637Z,5.66
2019-03-17T06:27:27.959Z,5.64
2019-03-17T06:29:59.258Z,5.70
2019-03-17T06:32:34.729Z,5.73
2019-03-17T06:35:06.370Z,5.85
2019-03-17T06:37:54.762Z,5.91
2019-03-17T06:40:26.281Z,5.95
2019-03-17T06:42:57.693Z,6.01
2019-03-17T06:45:30.653Z,5.97
2019-03-17T06:48:03.330Z,5.97
2019-03-17T06:50:34.705Z,5.99
2019-03-17T06:53:07.879Z,5.99
2019-03-17T06:55:40.336Z,5.87
2019-03-17T06:58:11.559Z,6.00
2019-03-17T07:00:42.652Z,6.15
2019-03-17T07:03:14.583Z,6.10
2019-03-17T07:05:47.526Z,5.99
2019-03-17T07:08:19.180Z,5.96
2019-03-17T07:10:51.636Z,5.90
2019-03-17T07:13:23.033Z,5.94
2019-03-17T07:15:54.693Z,6.16
2019-03-17T07:18:26.370Z,6.14
2019-03-17T07:20:57.875Z,6.16
2019-03-17T07:23:29.757Z,6.09
2019-03-17T07:26:02.802Z,6.14
2019-03-17T07:28:35.616Z,6.20
2019-03-17T07:31:12.379Z,6.07
2019-03-17T07:33:43.814Z,5.99
2019-03-17T07:36:17.948Z,5.99
2019-03-17T07:38:50.430Z,6.08
2019-03-17T07:41:22.041Z,6.23
2019-03-17T07:43:53.918Z,6.27
2019-03-17T07:46:25.850Z,6.35
2019-03-17T07:48:59.717Z,6.52
2019-03-17T07:51:33.634Z,6.61
2019-03-17T07:54:05.305Z,6.71
2019-03-17T07:59:40.946Z,6.88
2019-03-17T08:02:12.461Z,6.81
2019-03-17T08:04:46.295Z,6.72
2019-03-17T08:07:19.475Z,6.79
2019-03-17T08:09:52.961Z,6.81
2019-03-17T08:12:24.242Z,6.67
2019-03-17T08:14:57.738Z,6.63
2019-03-17T08:17:28.875Z,6.54
2019-03-17T08:20:00.753Z,6.61
2019-03-17T08:22:32.129Z,6.64
2019-03-17T08:25:04.148Z,6.49
2019-03-17T08:27:39.898Z,6.48
2019-03-17T08:30:16.743Z,6.39
2019-03-17T08:32:48.378Z,6.45
2019-03-17T08:35:20.342Z,6.47
2019-03-17T08:37:52.466Z,6.37
2019-03-17T08:40:23.636Z,6.28
2019-03-17T08:42:55.146Z,6.38
2019-03-17T08:45:28.204Z,6.48
2019-03-17T08:47:59.414Z,6.67
2019-03-17T08:50:31.049Z,6.60
2019-03-17T08:53:02.961Z,6.70
2019-03-17T08:55:34.298Z,6.74
2019-03-17T08:58:06.780Z,6.81
2019-03-17T09:00:38.165Z,6.83
2019-03-17T09:03:09.689Z,6.68
2019-03-17T09:05:42.067Z,6.74
2019-03-17T09:08:13.365Z,6.82
2019-03-17T09:10:44.574Z,6.81
2019-03-17T09:13:15.856Z,6.71
2019-03-17T09:15:47.179Z,6.57
2019-03-17T09:18:18.349Z,6.63
2019-03-17T09:20:49.762Z,6.77
2019-03-17T09:23:21.462Z,6.87
2019-03-17T09:25:52.626Z,7.11
2019-03-17T09:28:23.812Z,7.17
2019-03-17T09:30:55.205Z,7.11
2019-03-17T09:33:26.476Z,7.07
2019-03-17T09:35:57.778Z,7.22
2019-03-17T09:38:29.246Z,7.03
2019-03-17T09:41:00.424Z,6.99
2019-03-17T09:43:32.797Z,6.95
2019-03-17T09:46:04.265Z,6.92
2019-03-17T09:48:35.490Z,6.99
2019-03-17T09:51:07.243Z,7.00
2019-03-17T09:53:38.695Z,7.18
2019-03-17T09:56:10.186Z,7.31
2019-03-17T09:58:41.191Z,7.20
2019-03-17T10:01:12.161Z,7.26
2019-03-17T10:03:43.408Z,7.30
2019-03-17T10:06:14.779Z,7.40
2019-03-17T10:08:59.142Z,7.56
2019-03-17T10:11:19.861Z,7.54
2019-03-17T10:13:51.103Z,7.56
2019-03-17T10:16:27.042Z,7.34
2019-03-17T10:18:58.439Z,7.32
2019-03-17T10:21:37.778Z,7.24
2019-03-17T10:24:15.478Z,7.34
2019-03-17T10:26:49.875Z,7.43
2019-03-17T10:29:21.041Z,7.45
2019-03-17T10:31:52.618Z,7.54
2019-03-17T10:34:23.896Z,7.66
2019-03-17T10:36:55.183Z,7.66
2019-03-17T10:39:27.213Z,7.66
2019-03-17T10:41:58.375Z,7.68
2019-03-17T10:44:29.530Z,7.79
2019-03-17T10:47:01.633Z,7.76
2019-03-17T10:49:32.964Z,7.79
2019-03-17T10:52:04.157Z,7.92
2019-03-17T10:54:35.497Z,7.82
2019-03-17T10:57:06.708Z,7.73
2019-03-17T10:59:37.924Z,7.76
2019-03-17T11:02:09.150Z,7.52
2019-03-17T11:04:40.275Z,7.25
2019-03-17T11:07:11.459Z,7.25
2019-03-17T11:09:42.878Z,7.15
2019-03-17T11:12:13.981Z,7.26
2019-03-17T11:14:45.068Z,7.37
2019-03-17T11:17:16.155Z,7.49
2019-03-17T11:19:47.400Z,7.57
2019-03-17T11:22:22.097Z,7.61
2019-03-17T11:24:53.466Z,7.73
2019-03-17T11:27:25.065Z,7.71
2019-03-17T11:29:56.872Z,7.56
2019-03-17T11:32:28.359Z,7.52
2019-03-17T11:34:59.814Z,7.59
2019-03-17T11:37:31.321Z,7.75
2019-03-17T11:40:02.776Z,7.98
2019-03-17T11:42:34.128Z,8.22
2019-03-17T11:45:08.347Z,8.14
2019-03-17T11:47:40.050Z,8.02
2019-03-17T11:50:19.268Z,7.93
2019-03-17T11:52:51.076Z,7.64
2019-03-17T11:55:22.391Z,7.57
2019-03-17T11:57:56.022Z,7.40
2019-03-17T12:00:27.804Z,7.10
2019-03-17T12:02:59.227Z,7.02
2019-03-17T12:05:30.573Z,6.97
2019-03-17T12:08:05.353Z,6.93
2019-03-17T12:10:37.214Z,6.98
2019-03-17T12:13:10.791Z,6.89
2019-03-17T12:15:53.320Z,7.00
2019-03-17T12:18:25.790Z,7.03
2019-03-17T12:20:58.498Z,7.00
2019-03-17T12:23:30.171Z,7.13
2019-03-17T12:26:03.769Z,7.23
2019-03-17T12:28:37.118Z,7.04
2019-03-17T12:31:09.111Z,7.17
2019-03-17T12:33:41.031Z,7.32
2019-03-17T12:36:14.781Z,7.44
2019-03-17T12:38:50.893Z,7.42
2019-03-17T12:41:29.567Z,7.32
2019-03-17T12:44:11.922Z,7.53
2019-03-17T12:46:45.293Z,7.62
2019-03-17T12:49:17.669Z,7.79
2019-03-17T12:51:49.115Z,7.71
2019-03-17T12:54:21.096Z,7.80
2019-03-17T12:56:52.493Z,7.79
2019-03-17T12:59:24.088Z,7.90
2019-03-17T13:01:56.355Z,7.83
2019-03-17T13:04:28.270Z,7.70
2019-03-17T13:06:59.589Z,7.75
2019-03-17T13:09:30.867Z,7.69
2019-03-17T13:12:02.332Z,7.66
2019-03-17T13:14:33.514Z,7.69
2019-03-17T13:17:05.165Z,7.67
2019-03-17T13:19:36.438Z,7.57
2019-03-17T13:22:08.880Z,7.50
2019-03-17T13:24:41.775Z,7.31
2019-03-17T13:27:15.432Z,7.29
2019-03-17T13:29:46.733Z,7.29
2019-03-17T13:32:17.981Z,7.33
2019-03-17T13:34:49.227Z,7.30
2019-03-17T13:37:22.554Z,7.10
2019-03-17T13:39:53.746Z,7.19
2019-03-17T13:42:24.932Z,7.20
2019-03-17T13:44:59.010Z,7.15
2019-03-17T13:47:30.909Z,7.13
2019-03-17T13:50:02.540Z,7.18
2019-03-17T13:52:35.740Z,7.09
2019-03-17T13:55:07.152Z,7.08
2019-03-17T13:57:38.673Z,7.17
2019-03-17T14:00:13.460Z,7.25
2019-03-17T14:02:45.131Z,7.30
2019-03-17T14:05:16.547Z,7.24
2019-03-17T14:07:47.971Z,7.27
2019-03-17T14:10:19.563Z,7.26
2019-03-17T14:12:52.884Z,7.32
2019-03-17T14:15:24.298Z,7.35
2019-03-17T14:17:55.442Z,7.31
2019-03-17T14:20:26.486Z,7.17
2019-03-17T14:22:57.810Z,7.08
2019-03-17T14:25:36.394Z,7.04
2019-03-17T14:28:10.929Z,6.87
2019-03-17T14:30:44.898Z,7.01
2019-03-17T14:33:16.031Z,6.91
2019-03-17T14:35:47.156Z,6.90
2019-03-17T14:38:18.573Z,6.90
2019-03-17T14:40:53.890Z,6.92
2019-03-17T14:43:22.697Z,6.93
2019-03-17T14:45:53.943Z,6.84
2019-03-17T14:48:25.423Z,6.85
2019-03-17T14:50:59.322Z,6.80
2019-03-17T14:53:30.626Z,6.83
2019-03-17T14:56:01.826Z,6.77
2019-03-17T14:58:52.309Z,6.84
2019-03-17T15:01:20.871Z,6.82
2019-03-17T15:03:52.039Z,6.83
2019-03-17T15:06:24.371Z,6.85
2019-03-17T15:08:57.806Z,6.93
2019-03-17T15:11:45.456Z,6.83
2019-03-17T15:14:26.340Z,6.91
2019-03-17T15:16:58.799Z,6.91
2019-03-17T15:19:30.251Z,6.87
2019-03-17T15:22:02.381Z,6.98
2019-03-17T15:24:33.668Z,6.99
2019-03-17T15:27:04.967Z,6.99
2019-03-17T15:29:36.302Z,6.96
2019-03-17T15:32:08.618Z,6.92
2019-03-17T15:34:39.622Z,6.92
2019-03-17T15:37:10.741Z,6.82
2019-03-17T15:39:41.929Z,6.80
2019-03-17T15:42:12.990Z,6.78
2019-03-17T15:44:44.443Z,6.77
2019-03-17T15:47:15.629Z,6.81
2019-03-17T15:49:46.836Z,6.85
2019-03-17T15:52:18.085Z,6.82
2019-03-17T15:54:50.301Z,6.82
2019-03-17T15:57:22.423Z,6.80
2019-03-17T15:59:57.175Z,6.79
2019-03-17T16:02:28.553Z,6.81
2019-03-17T16:05:00.354Z,6.83
2019-03-17T16:07:41.807Z,6.84
2019-03-17T16:10:14.281Z,6.84
2019-03-17T16:12:45.723Z,6.86
2019-03-17T16:15:17.026Z,6.81
2019-03-17T16:17:48.425Z,6.84
2019-03-17T16:20:29.557Z,6.83
2019-03-17T16:23:10.254Z,6.80
2019-03-17T16:25:41.473Z,6.76
2019-03-17T16:28:12.722Z,6.80
2019-03-17T16:30:43.940Z,6.70
2019-03-17T16:33:15.437Z,6.71
2019-03-17T16:35:47.142Z,6.62
2019-03-17T16:38:18.471Z,6.65
2019-03-17T16:40:49.722Z,6.68
2019-03-17T16:43:22.533Z,6.61
2019-03-17T16:45:54.110Z,6.57
2019-03-17T16:48:25.522Z,6.50
2019-03-17T16:50:57.703Z,6.51
2019-03-17T16:53:29.759Z,6.53
2019-03-17T16:56:03.165Z,6.48
2019-03-17T16:58:34.761Z,6.48
2019-03-17T17:01:06.256Z,6.42
2019-03-17T17:03:38.538Z,6.45
2019-03-17T17:06:09.714Z,6.46
2019-03-17T17:08:41.361Z,6.40
2019-03-17T17:11:12.948Z,6.41
2019-03-17T17:13:44.326Z,6.42
2019-03-17T17:16:15.501Z,6.37
2019-03-17T17:18:47.050Z,6.44
2019-03-17T17:21:18.339Z,6.37
2019-03-17T17:23:49.572Z,6.36
2019-03-17T17:26:20.737Z,6.35
2019-03-17T17:28:53.286Z,6.39
2019-03-17T17:31:24.914Z,6.33
2019-03-17T17:33:58.696Z,6.25
2019-03-17T17:36:30.010Z,6.25
2019-03-17T17:39:01.341Z,6.20
2019-03-17T17:41:33.994Z,6.22
2019-03-17T17:44:05.270Z,6.19
2019-03-17T17:46:36.643Z,6.17
2019-03-17T17:49:09.877Z,6.14
2019-03-17T17:51:41.325Z,6.13
2019-03-17T17:54:12.623Z,6.09
2019-03-17T17:56:44.672Z,6.00
2019-03-17T17:59:16.186Z,5.90
2019-03-17T18:01:47.963Z,5.85
2019-03-17T18:04:19.241Z,5.84
2019-03-17T18:06:50.690Z,5.83
2019-03-17T18:09:21.959Z,5.82
2019-03-17T18:11:53.532Z,5.76
2019-03-17T18:14:24.841Z,5.77
2019-03-17T18:16:57.072Z,5.74
2019-03-17T18:19:29.859Z,5.72
2019-03-17T18:22:01.193Z,5.66
2019-03-17T18:24:41.812Z,5.64
2019-03-17T18:27:14.434Z,5.64
2019-03-17T18:29:45.763Z,5.50
2019-03-17T18:32:17.618Z,5.43
2019-03-17T18:34:50.604Z,5.43
2019-03-17T18:37:24.091Z,5.37
2019-03-17T18:39:57.946Z,5.38
2019-03-17T18:42:33.363Z,5.43
2019-03-17T18:45:04.404Z,5.39
2019-03-17T18:47:36.124Z,5.40
2019-03-17T18:50:19.390Z,5.42
2019-03-17T18:52:43.492Z,5.41
2019-03-17T18:55:15.382Z,5.35
2019-03-17T18:57:47.065Z,5.27
2019-03-17T19:00:21.596Z,5.32
2019-03-17T19:02:52.926Z,5.32
2019-03-17T19:05:25.344Z,5.34
2019-03-17T19:07:56.706Z,5.35
2019-03-17T19:10:28.210Z,5.34
2019-03-17T19:12:59.668Z,5.34
2019-03-17T19:15:31.299Z,5.36
2019-03-17T19:18:05.729Z,5.41
2019-03-17T19:20:36.958Z,5.33
2019-03-17T19:23:08.463Z,5.35
2019-03-17T19:25:39.814Z,5.40
2019-03-17T19:28:11.833Z,5.41
2019-03-17T19:30:44.155Z,5.40
2019-03-17T19:33:15.405Z,5.43
2019-03-17T19:35:48.281Z,5.47
2019-03-17T19:38:20.144Z,5.44
2019-03-17T19:40:51.774Z,5.52
2019-03-17T19:43:23.058Z,5.47
2019-03-17T19:45:54.304Z,5.48
2019-03-17T19:48:25.624Z,5.53
2019-03-17T19:50:56.912Z,5.49
2019-03-17T19:53:28.196Z,5.39
2019-03-17T19:55:59.714Z,5.48
2019-03-17T19:58:31.157Z,5.52
2019-03-17T20:01:05.619Z,5.35
2019-03-17T20:03:36.975Z,5.40
2019-03-17T20:06:10.552Z,5.49
2019-03-17T20:08:41.431Z,5.54
2019-03-17T20:11:13.036Z,5.49
2019-03-17T20:13:44.235Z,5.43
2019-03-17T20:16:15.501Z,5.41
2019-03-17T20:18:46.865Z,5.32
2019-03-17T20:21:18.190Z,5.29
2019-03-17T20:23:49.436Z,5.34
2019-03-17T20:26:20.640Z,5.31
2019-03-17T20:28:52.565Z,5.37
2019-03-17T20:31:23.989Z,5.42
2019-03-17T20:33:55.394Z,5.47
2019-03-17T20:36:26.916Z,5.40
2019-03-17T20:38:58.134Z,5.38
2019-03-17T20:41:29.435Z,5.41
2019-03-17T20:44:01.046Z,5.28
2019-03-17T20:46:32.624Z,5.31
2019-03-17T20:49:03.945Z,5.29
2019-03-17T20:51:35.470Z,5.25
2019-03-17T20:54:06.924Z,5.21
2019-03-17T20:56:38.226Z,5.16
2019-03-17T20:59:09.421Z,5.09
2019-03-17T21:01:40.990Z,5.11
2019-03-17T21:04:13.273Z,5.10
2019-03-17T21:06:45.034Z,5.13
2019-03-17T21:09:16.196Z,5.07
2019-03-17T21:11:47.772Z,5.05
2019-03-17T21:14:19.019Z,5.05
2019-03-17T21:16:50.194Z,4.90
2019-03-17T21:19:21.552Z,4.84
2019-03-17T21:21:52.913Z,4.98
2019-03-17T21:24:24.503Z,4.72
2019-03-17T21:26:55.866Z,4.60
2019-03-17T21:29:27.104Z,4.47
2019-03-17T21:31:58.288Z,4.57
2019-03-17T21:34:29.600Z,4.59
2019-03-17T21:37:00.813Z,4.59
2019-03-17T21:39:32.084Z,4.52
2019-03-17T21:42:05.485Z,4.51
2019-03-17T21:44:39.167Z,4.54
2019-03-17T21:47:15.840Z,4.53
2019-03-17T21:49:58.636Z,4.51
2019-03-17T21:52:32.963Z,4.53
2019-03-17T21:55:06.668Z,4.52
2019-03-17T21:57:43.320Z,4.33
2019-03-17T22:00:19.102Z,4.34
2019-03-17T22:02:58.845Z,4.35
2019-03-17T22:05:30.522Z,4.34
2019-03-17T22:08:07.413Z,4.30
2019-03-17T22:10:41.308Z,4.30
2019-03-17T22:13:13.116Z,4.24
2019-03-17T22:15:46.269Z,4.21
2019-03-17T22:18:18.750Z,4.18
2019-03-17T22:20:50.470Z,4.18
2019-03-17T22:23:22.322Z,4.19
2019-03-17T22:26:00.732Z,4.13
2019-03-17T22:28:34.739Z,4.14
2019-03-17T22:31:06.139Z,4.15
2019-03-17T22:33:37.413Z,4.11
2019-03-17T22:36:08.741Z,3.99
2019-03-17T22:38:40.031Z,4.02
2019-03-17T22:41:11.211Z,3.96
2019-03-17T22:43:44.363Z,3.93
2019-03-17T22:46:15.762Z,3.94
2019-03-17T22:48:48.041Z,4.01
2019-03-17T22:51:19.407Z,4.07
2019-03-17T22:53:51.005Z,4.01
2019-03-17T22:56:22.297Z,3.97
2019-03-17T22:58:53.638Z,3.88
2019-03-17T23:01:24.943Z,3.95
2019-03-17T23:03:57.308Z,3.71
2019-03-17T23:06:29.833Z,3.78
2019-03-17T23:09:01.201Z,3.83
2019-03-17T23:11:33.147Z,3.78
2019-03-17T23:14:05.930Z,3.86
2019-03-17T23:16:37.177Z,3.81
2019-03-17T23:19:08.434Z,3.70
2019-03-17T23:21:39.532Z,3.77
2019-03-17T23:24:10.829Z,3.78
2019-03-17T23:26:42.281Z,3.70
2019-03-17T23:29:13.696Z,3.90
2019-03-17T23:31:46.691Z,3.86
2019-03-17T23:34:18.395Z,3.88
2019-03-17T23:36:49.813Z,3.62
2019-03-17T23:39:21.165Z,3.60
2019-03-17T23:41:53.754Z,3.64
2019-03-17T23:44:25.199Z,3.63
2019-03-17T23:46:56.813Z,3.59
2019-03-17T23:49:28.979Z,3.54
2019-03-17T23:52:00.289Z,3.45
2019-03-17T23:54:31.619Z,3.46
2019-03-17T23:57:03.974Z,3.46
2019-03-17T23:59:35.488Z,3.66
